sensor_id;sensor_type;location;lat;lon;timestamp;pressure;altitude;pressure_sealevel;temperature;humidity
13241;BME280;6687;47.790;7.322;2022-11-03T06:13:11;98953.84;;;6.93;100.00
13241;BME280;6687;47.790;7.322;2022-11-03T06:15:41;98948.69;;;6.93;100.00
13241;BME280;6687;47.790;7.322;2022-11-03T06:18:13;98942.78;;;6.99;100.00
13241;BME280;6687;47.790;7.322;2022-11-03T06:20:40;98934.31;;;7.06;100.00
13241;BME280;6687;47.790;7.322;2022-11-03T06:23:08;98933.44;;;7.06;100.00
13241;BME280;6687;47.790;7.322;2022-11-03T06:25:38;98931.84;;;7.12;100.00
13241;BME280;6687;47.790;7.322;2022-11-03T06:28:13;98937.03;;;7.17;100.00
13241;BME280;6687;47.790;7.322;2022-11-03T06:30:42;98933.50;;;7.09;100.00
13241;BME280;6687;47.790;7.322;2022-11-03T06:33:13;98934.38;;;7.11;100.00
13241;BME280;6687;47.790;7.322;2022-11-03T06:35:41;98919.66;;;7.04;100.00
13241;BME280;6687;47.790;7.322;2022-11-03T06:38:14;98918.06;;;7.12;100.00
13241;BME280;6687;47.790;7.322;2022-11-03T06:40:41;98932.66;;;7.11;100.00
13241;BME280;6687;47.790;7.322;2022-11-03T06:43:19;98928.34;;;7.09;100.00
13241;BME280;6687;47.790;7.322;2022-11-03T06:45:52;98928.38;;;7.10;100.00
13241;BME280;6687;47.790;7.322;2022-11-03T06:48:23;98922.44;;;7.17;100.00
13241;BME280;6687;47.790;7.322;2022-11-03T06:50:50;98920.72;;;7.16;100.00
13241;BME280;6687;47.790;7.322;2022-11-03T06:53:22;98919.06;;;7.22;100.00
13241;BME280;6687;47.790;7.322;2022-11-03T06:55:50;98921.72;;;7.26;100.00
13241;BME280;6687;47.790;7.322;2022-11-03T06:58:23;98919.84;;;7.14;100.00
13241;BME280;6687;47.790;7.322;2022-11-03T07:00:53;98927.56;;;7.16;100.00
13241;BME280;6687;47.790;7.322;2022-11-03T07:03:23;98923.50;;;7.30;100.00
13241;BME280;6687;47.790;7.322;2022-11-03T07:05:55;98920.91;;;7.29;100.00
13241;BME280;6687;47.790;7.322;2022-11-03T07:08:24;98918.53;;;7.46;100.00
13241;BME280;6687;47.790;7.322;2022-11-03T07:10:58;98922.09;;;7.54;100.00
13241;BME280;6687;47.790;7.322;2022-11-03T07:13:28;98911.88;;;7.60;100.00
13241;BME280;6687;47.790;7.322;2022-11-03T07:15:56;98908.41;;;7.58;100.00
13241;BME280;6687;47.790;7.322;2022-11-03T07:18:26;98910.22;;;7.65;100.00
13241;BME280;6687;47.790;7.322;2022-11-03T07:20:54;98911.19;;;7.75;100.00
13241;BME280;6687;47.790;7.322;2022-11-03T07:23:27;98909.47;;;7.75;100.00
13241;BME280;6687;47.790;7.322;2022-11-03T07:25:58;98912.16;;;7.85;100.00
13241;BME280;6687;47.790;7.322;2022-11-03T07:28:30;98907.19;;;8.00;100.00
13241;BME280;6687;47.790;7.322;2022-11-03T07:30:59;98905.50;;;8.04;100.00
13241;BME280;6687;47.790;7.322;2022-11-03T07:33:28;98898.78;;;8.16;100.00
13241;BME280;6687;47.790;7.322;2022-11-03T07:35:57;98895.38;;;8.21;100.00
13241;BME280;6687;47.790;7.322;2022-11-03T07:38:27;98895.47;;;8.31;100.00
13241;BME280;6687;47.790;7.322;2022-11-03T07:40:56;98885.28;;;8.45;100.00
13241;BME280;6687;47.790;7.322;2022-11-03T07:43:29;98887.06;;;8.51;100.00
13241;BME280;6687;47.790;7.322;2022-11-03T07:45:58;98880.34;;;8.68;100.00
13241;BME280;6687;47.790;7.322;2022-11-03T07:48:29;98880.41;;;8.79;100.00
13241;BME280;6687;47.790;7.322;2022-11-03T07:51:00;98882.16;;;8.83;100.00
13241;BME280;6687;47.790;7.322;2022-11-03T07:53:41;98885.69;;;8.91;100.00
13241;BME280;6687;47.790;7.322;2022-11-03T07:56:14;98875.41;;;8.98;100.00
13241;BME280;6687;47.790;7.322;2022-11-03T07:58:45;98883.22;;;9.05;100.00
13241;BME280;6687;47.790;7.322;2022-11-03T08:01:22;98882.44;;;9.20;100.00
13241;BME280;6687;47.790;7.322;2022-11-03T08:03:50;98884.22;;;9.30;100.00
13241;BME280;6687;47.790;7.322;2022-11-03T08:06:18;98883.44;;;9.44;100.00
13241;BME280;6687;47.790;7.322;2022-11-03T08:08:45;98874.84;;;9.52;100.00
13241;BME280;6687;47.790;7.322;2022-11-03T08:11:11;98870.59;;;9.65;100.00
13241;BME280;6687;47.790;7.322;2022-11-03T08:13:38;98871.50;;;9.78;99.18
13241;BME280;6687;47.790;7.322;2022-11-03T08:16:07;98875.84;;;9.90;100.00
13241;BME280;6687;47.790;7.322;2022-11-03T08:18:33;98868.97;;;9.98;99.53
13241;BME280;6687;47.790;7.322;2022-11-03T08:21:01;98874.16;;;10.10;99.42
13241;BME280;6687;47.790;7.322;2022-11-03T08:23:28;98862.13;;;10.19;97.46
13241;BME280;6687;47.790;7.322;2022-11-03T08:25:54;98856.97;;;10.34;95.89
13241;BME280;6687;47.790;7.322;2022-11-03T08:28:21;98849.22;;;10.42;96.82
13241;BME280;6687;47.790;7.322;2022-11-03T08:30:48;98856.13;;;10.47;96.26
13241;BME280;6687;47.790;7.322;2022-11-03T08:33:16;98855.28;;;10.61;92.80
13241;BME280;6687;47.790;7.322;2022-11-03T08:35:43;98850.09;;;10.67;92.33
13241;BME280;6687;47.790;7.322;2022-11-03T08:38:10;98853.56;;;10.69;94.16
13241;BME280;6687;47.790;7.322;2022-11-03T08:40:36;98850.09;;;10.73;94.75
13241;BME280;6687;47.790;7.322;2022-11-03T08:43:03;98858.72;;;10.78;97.92
13241;BME280;6687;47.790;7.322;2022-11-03T08:45:31;98848.38;;;10.69;100.00
13241;BME280;6687;47.790;7.322;2022-11-03T08:47:57;98839.72;;;10.94;98.25
13241;BME280;6687;47.790;7.322;2022-11-03T08:50:25;98837.97;;;10.97;98.43
13241;BME280;6687;47.790;7.322;2022-11-03T08:52:52;98832.75;;;11.12;93.87
13241;BME280;6687;47.790;7.322;2022-11-03T08:55:19;98838.75;;;11.22;93.37
13241;BME280;6687;47.790;7.322;2022-11-03T08:57:45;98832.69;;;11.35;91.40
13241;BME280;6687;47.790;7.322;2022-11-03T09:00:13;98822.25;;;11.46;90.18
13241;BME280;6687;47.790;7.322;2022-11-03T09:02:41;98811.88;;;11.52;90.85
13241;BME280;6687;47.790;7.322;2022-11-03T09:05:08;98822.19;;;11.64;89.07
13241;BME280;6687;47.790;7.322;2022-11-03T09:07:36;98810.00;;;11.75;87.51
13241;BME280;6687;47.790;7.322;2022-11-03T09:10:04;98809.09;;;11.86;86.50
13241;BME280;6687;47.790;7.322;2022-11-03T09:12:31;98796.13;;;11.89;86.33
13241;BME280;6687;47.790;7.322;2022-11-03T09:14:58;98785.69;;;11.98;83.99
13241;BME280;6687;47.790;7.322;2022-11-03T09:17:25;98777.81;;;12.10;83.04
13241;BME280;6687;47.790;7.322;2022-11-03T09:19:51;98778.63;;;12.17;82.16
13241;BME280;6687;47.790;7.322;2022-11-03T09:22:18;98775.97;;;12.23;82.01
13241;BME280;6687;47.790;7.322;2022-11-03T09:24:47;98780.25;;;12.30;81.21
13241;BME280;6687;47.790;7.322;2022-11-03T09:27:14;98777.53;;;12.43;81.44
13241;BME280;6687;47.790;7.322;2022-11-03T09:29:41;98788.72;;;12.52;82.70
13241;BME280;6687;47.790;7.322;2022-11-03T09:32:07;98769.69;;;12.53;80.87
13241;BME280;6687;47.790;7.322;2022-11-03T09:34:35;98761.69;;;12.70;81.95
13241;BME280;6687;47.790;7.322;2022-11-03T09:37:01;98767.69;;;12.77;81.83
13241;BME280;6687;47.790;7.322;2022-11-03T09:39:28;98763.25;;;12.90;83.35
13241;BME280;6687;47.790;7.322;2022-11-03T09:41:56;98748.41;;;13.00;79.96
13241;BME280;6687;47.790;7.322;2022-11-03T09:44:24;98747.34;;;13.14;81.77
13241;BME280;6687;47.790;7.322;2022-11-03T09:46:52;98739.50;;;13.19;80.02
13241;BME280;6687;47.790;7.322;2022-11-03T09:49:19;98737.63;;;13.29;79.43
13241;BME280;6687;47.790;7.322;2022-11-03T09:51:46;98724.53;;;13.37;79.32
13241;BME280;6687;47.790;7.322;2022-11-03T09:54:15;98714.88;;;13.45;78.76
13241;BME280;6687;47.790;7.322;2022-11-03T09:56:42;98716.50;;;13.55;78.91
13241;BME280;6687;47.790;7.322;2022-11-03T09:59:17;98716.31;;;13.67;80.02
13241;BME280;6687;47.790;7.322;2022-11-03T10:01:46;98717.88;;;13.81;80.92
13241;BME280;6687;47.790;7.322;2022-11-03T10:04:15;98703.84;;;13.88;79.88
13241;BME280;6687;47.790;7.322;2022-11-03T10:06:42;98695.94;;;13.94;78.87
13241;BME280;6687;47.790;7.322;2022-11-03T10:09:14;98701.94;;;14.01;77.55
13241;BME280;6687;47.790;7.322;2022-11-03T10:11:43;98697.25;;;14.20;81.23
13241;BME280;6687;47.790;7.322;2022-11-03T10:14:13;98691.94;;;14.26;82.67
13241;BME280;6687;47.790;7.322;2022-11-03T10:16:45;98684.72;;;14.40;82.36
13241;BME280;6687;47.790;7.322;2022-11-03T10:19:14;98691.53;;;14.49;82.19
13241;BME280;6687;47.790;7.322;2022-11-03T10:21:42;98674.88;;;14.58;81.89
13241;BME280;6687;47.790;7.322;2022-11-03T10:24:10;98673.88;;;14.66;81.84
13241;BME280;6687;47.790;7.322;2022-11-03T10:26:45;98668.56;;;14.69;81.32
13241;BME280;6687;47.790;7.322;2022-11-03T10:29:17;98664.94;;;14.78;80.63
13241;BME280;6687;47.790;7.322;2022-11-03T10:31:47;98664.75;;;14.87;80.78
13241;BME280;6687;47.790;7.322;2022-11-03T10:34:26;98660.31;;;14.93;80.47
13241;BME280;6687;47.790;7.322;2022-11-03T10:37:14;98647.00;;;15.05;81.00
13241;BME280;6687;47.790;7.322;2022-11-03T10:39:45;98645.38;;;14.99;77.20
13241;BME280;6687;47.790;7.322;2022-11-03T10:42:19;98646.22;;;15.00;75.99
13241;BME280;6687;47.790;7.322;2022-11-03T10:44:47;98634.78;;;15.05;77.04
13241;BME280;6687;47.790;7.322;2022-11-03T10:47:25;98630.31;;;15.12;76.32
13241;BME280;6687;47.790;7.322;2022-11-03T10:49:52;98611.97;;;15.15;76.09
13241;BME280;6687;47.790;7.322;2022-11-03T10:52:22;98616.03;;;15.28;78.76
13241;BME280;6687;47.790;7.322;2022-11-03T10:54:51;98619.38;;;15.34;78.17
13241;BME280;6687;47.790;7.322;2022-11-03T10:57:18;98606.25;;;15.37;76.95
13241;BME280;6687;47.790;7.322;2022-11-03T10:59:47;98602.63;;;15.44;77.21
13241;BME280;6687;47.790;7.322;2022-11-03T11:02:17;98593.00;;;15.46;76.32
13241;BME280;6687;47.790;7.322;2022-11-03T11:04:47;98585.75;;;15.57;78.56
13241;BME280;6687;47.790;7.322;2022-11-03T11:07:18;98579.03;;;15.47;75.00
13241;BME280;6687;47.790;7.322;2022-11-03T11:09:47;98577.00;;;15.60;76.64
13241;BME280;6687;47.790;7.322;2022-11-03T11:12:15;98574.44;;;15.58;76.71
13241;BME280;6687;47.790;7.322;2022-11-03T11:15:01;98568.38;;;15.56;77.28
13241;BME280;6687;47.790;7.322;2022-11-03T11:17:45;98556.06;;;15.61;77.17
13241;BME280;6687;47.790;7.322;2022-11-03T11:20:35;98551.22;;;15.82;77.49
13241;BME280;6687;47.790;7.322;2022-11-03T11:26:30;98538.41;;;15.73;76.32
13241;BME280;6687;47.790;7.322;2022-11-03T11:35:17;98505.28;;;16.06;75.60
13241;BME280;6687;47.790;7.322;2022-11-03T11:37:45;98498.88;;;16.18;76.40
13241;BME280;6687;47.790;7.322;2022-11-03T11:40:13;98490.06;;;16.20;77.10
13241;BME280;6687;47.790;7.322;2022-11-03T11:46:23;98484.69;;;16.25;76.71
13241;BME280;6687;47.790;7.322;2022-11-03T11:49:14;98483.44;;;16.38;77.74
13241;BME280;6687;47.790;7.322;2022-11-03T11:51:42;98473.72;;;16.43;77.36
13241;BME280;6687;47.790;7.322;2022-11-03T11:54:14;98461.31;;;16.50;78.01
13241;BME280;6687;47.790;7.322;2022-11-03T11:56:43;98451.66;;;16.52;77.06
13241;BME280;6687;47.790;7.322;2022-11-03T11:59:16;98442.22;;;16.46;74.49
13241;BME280;6687;47.790;7.322;2022-11-03T12:01:48;98444.44;;;16.30;74.30
13241;BME280;6687;47.790;7.322;2022-11-03T12:04:19;98429.34;;;16.40;73.89
13241;BME280;6687;47.790;7.322;2022-11-03T12:06:47;98427.00;;;16.31;73.38
13241;BME280;6687;47.790;7.322;2022-11-03T12:09:17;98424.50;;;16.28;72.70
13241;BME280;6687;47.790;7.322;2022-11-03T12:11:45;98418.47;;;16.54;73.37
13241;BME280;6687;47.790;7.322;2022-11-03T12:14:25;98410.69;;;16.23;73.46
13241;BME280;6687;47.790;7.322;2022-11-03T12:17:04;98396.69;;;16.25;72.65
13241;BME280;6687;47.790;7.322;2022-11-03T12:19:46;98401.97;;;16.24;72.48
13241;BME280;6687;47.790;7.322;2022-11-03T12:25:34;98381.13;;;16.49;71.49
13241;BME280;6687;47.790;7.322;2022-11-03T12:28:04;98376.59;;;16.27;70.84
13241;BME280;6687;47.790;7.322;2022-11-03T12:30:31;98359.69;;;16.66;70.88
13241;BME280;6687;47.790;7.322;2022-11-03T12:32:58;98343.88;;;16.69;70.72
13241;BME280;6687;47.790;7.322;2022-11-03T12:35:25;98333.94;;;16.79;71.13
13241;BME280;6687;47.790;7.322;2022-11-03T12:37:52;98324.66;;;16.70;70.31
13241;BME280;6687;47.790;7.322;2022-11-03T12:40:19;98328.50;;;16.60;70.28
13241;BME280;6687;47.790;7.322;2022-11-03T12:42:48;98337.63;;;16.46;69.79
13241;BME280;6687;47.790;7.322;2022-11-03T12:45:15;98322.03;;;16.70;69.14
13241;BME280;6687;47.790;7.322;2022-11-03T12:47:42;98315.84;;;16.73;69.27
13241;BME280;6687;47.790;7.322;2022-11-03T12:50:09;98308.09;;;16.96;70.16
13241;BME280;6687;47.790;7.322;2022-11-03T12:52:36;98304.72;;;16.93;70.20
13241;BME280;6687;47.790;7.322;2022-11-03T12:55:03;98300.78;;;17.06;69.44
13241;BME280;6687;47.790;7.322;2022-11-03T12:57:30;98298.19;;;17.06;68.87
13241;BME280;6687;47.790;7.322;2022-11-03T12:59:59;98299.78;;;17.10;68.78
13241;BME280;6687;47.790;7.322;2022-11-03T13:02:26;98289.69;;;16.99;66.74
13241;BME280;6687;47.790;7.322;2022-11-03T13:04:53;98285.19;;;17.03;66.78
13241;BME280;6687;47.790;7.322;2022-11-03T13:07:20;98276.03;;;16.91;68.12
13241;BME280;6687;47.790;7.322;2022-11-03T13:09:47;98275.59;;;17.03;68.29
13241;BME280;6687;47.790;7.322;2022-11-03T13:12:14;98275.28;;;16.87;68.71
13241;BME280;6687;47.790;7.322;2022-11-03T13:15:04;98257.63;;;16.93;68.55
13241;BME280;6687;47.790;7.322;2022-11-03T13:17:32;98248.41;;;17.07;68.61
13241;BME280;6687;47.790;7.322;2022-11-03T13:19:59;98244.59;;;17.16;71.84
13241;BME280;6687;47.790;7.322;2022-11-03T13:22:26;98240.19;;;17.17;73.92
13241;BME280;6687;47.790;7.322;2022-11-03T13:24:53;98240.94;;;17.20;73.83
13241;BME280;6687;47.790;7.322;2022-11-03T13:27:19;98230.38;;;17.23;73.81
13241;BME280;6687;47.790;7.322;2022-11-03T13:29:46;98237.44;;;17.21;74.66
13241;BME280;6687;47.790;7.322;2022-11-03T13:32:14;98235.59;;;17.23;74.26
13241;BME280;6687;47.790;7.322;2022-11-03T13:34:41;98232.28;;;17.18;73.58
13241;BME280;6687;47.790;7.322;2022-11-03T13:37:08;98228.66;;;17.22;74.78
13241;BME280;6687;47.790;7.322;2022-11-03T13:39:34;98226.81;;;17.24;74.09
13241;BME280;6687;47.790;7.322;2022-11-03T13:42:01;98219.91;;;17.23;74.65
13241;BME280;6687;47.790;7.322;2022-11-03T13:44:28;98214.53;;;17.26;74.42
13241;BME280;6687;47.790;7.322;2022-11-03T13:46:54;98207.84;;;17.19;74.05
13241;BME280;6687;47.790;7.322;2022-11-03T13:49:23;98193.19;;;17.14;73.76
13241;BME280;6687;47.790;7.322;2022-11-03T13:51:49;98185.06;;;17.21;73.66
13241;BME280;6687;47.790;7.322;2022-11-03T13:54:16;98185.34;;;17.14;73.59
13241;BME280;6687;47.790;7.322;2022-11-03T13:56:43;98188.81;;;17.14;72.92
13241;BME280;6687;47.790;7.322;2022-11-03T13:59:10;98187.84;;;17.17;73.07
13241;BME280;6687;47.790;7.322;2022-11-03T14:01:37;98186.31;;;17.11;73.30
13241;BME280;6687;47.790;7.322;2022-11-03T14:04:04;98177.78;;;17.06;73.25
13241;BME280;6687;47.790;7.322;2022-11-03T14:06:32;98173.44;;;17.05;72.93
13241;BME280;6687;47.790;7.322;2022-11-03T14:08:59;98166.75;;;16.98;72.29
13241;BME280;6687;47.790;7.322;2022-11-03T14:11:25;98164.31;;;16.93;72.26
13241;BME280;6687;47.790;7.322;2022-11-03T14:14:09;98153.53;;;17.01;72.81
13241;BME280;6687;47.790;7.322;2022-11-03T14:16:36;98157.41;;;16.90;72.15
13241;BME280;6687;47.790;7.322;2022-11-03T14:19:03;98148.28;;;16.77;72.43
13241;BME280;6687;47.790;7.322;2022-11-03T14:21:31;98146.13;;;16.88;72.04
13241;BME280;6687;47.790;7.322;2022-11-03T14:23:58;98137.63;;;16.83;71.62
13241;BME280;6687;47.790;7.322;2022-11-03T14:26:25;98135.06;;;16.80;71.98
13241;BME280;6687;47.790;7.322;2022-11-03T14:28:52;98124.47;;;16.85;71.65
13241;BME280;6687;47.790;7.322;2022-11-03T14:31:18;98114.56;;;16.69;71.41
13241;BME280;6687;47.790;7.322;2022-11-03T14:33:45;98113.66;;;16.69;71.05
13241;BME280;6687;47.790;7.322;2022-11-03T14:36:12;98103.56;;;16.60;71.87
13241;BME280;6687;47.790;7.322;2022-11-03T14:38:40;98094.56;;;16.67;72.76
13241;BME280;6687;47.790;7.322;2022-11-03T14:41:06;98079.91;;;16.63;71.66
13241;BME280;6687;47.790;7.322;2022-11-03T14:43:51;98064.63;;;16.52;71.46
13241;BME280;6687;47.790;7.322;2022-11-03T14:46:17;98064.56;;;16.54;72.50
13241;BME280;6687;47.790;7.322;2022-11-03T14:48:44;98062.19;;;16.47;72.42
13241;BME280;6687;47.790;7.322;2022-11-03T14:51:11;98075.25;;;16.47;72.66
13241;BME280;6687;47.790;7.322;2022-11-03T14:53:37;98079.78;;;16.42;71.79
13241;BME280;6687;47.790;7.322;2022-11-03T14:56:06;98071.13;;;16.40;73.34
13241;BME280;6687;47.790;7.322;2022-11-03T14:58:33;98078.75;;;16.46;73.38
13241;BME280;6687;47.790;7.322;2022-11-03T15:00:59;98074.78;;;16.36;73.20
13241;BME280;6687;47.790;7.322;2022-11-03T15:03:26;98077.97;;;16.19;73.30
13241;BME280;6687;47.790;7.322;2022-11-03T15:05:53;98082.72;;;16.33;73.63
13241;BME280;6687;47.790;7.322;2022-11-03T15:08:21;98077.63;;;16.30;73.53
13241;BME280;6687;47.790;7.322;2022-11-03T15:10:49;98068.97;;;16.28;74.13
13241;BME280;6687;47.790;7.322;2022-11-03T15:13:17;98066.59;;;16.22;74.16
13241;BME280;6687;47.790;7.322;2022-11-03T15:15:44;98063.47;;;16.10;73.22
13241;BME280;6687;47.790;7.322;2022-11-03T15:18:10;98063.38;;;16.14;73.64
13241;BME280;6687;47.790;7.322;2022-11-03T15:20:37;98060.28;;;16.02;73.39
13241;BME280;6687;47.790;7.322;2022-11-03T15:23:05;98056.97;;;15.97;74.41
13241;BME280;6687;47.790;7.322;2022-11-03T15:25:32;98048.75;;;15.83;72.05
13241;BME280;6687;47.790;7.322;2022-11-03T15:27:59;98053.78;;;15.89;72.73
13241;BME280;6687;47.790;7.322;2022-11-03T15:30:27;98053.44;;;15.71;72.94
13241;BME280;6687;47.790;7.322;2022-11-03T15:32:54;98053.59;;;15.67;72.12
13241;BME280;6687;47.790;7.322;2022-11-03T15:35:22;98050.91;;;15.70;72.80
13241;BME280;6687;47.790;7.322;2022-11-03T15:37:49;98043.47;;;15.58;72.47
13241;BME280;6687;47.790;7.322;2022-11-03T15:40:15;98052.13;;;15.60;73.37
13241;BME280;6687;47.790;7.322;2022-11-03T15:42:42;98058.03;;;15.38;74.44
13241;BME280;6687;47.790;7.322;2022-11-03T15:45:11;98053.75;;;15.36;74.11
13241;BME280;6687;47.790;7.322;2022-11-03T15:47:40;98050.44;;;15.30;74.10
13241;BME280;6687;47.790;7.322;2022-11-03T15:50:08;98044.47;;;15.27;74.61
13241;BME280;6687;47.790;7.322;2022-11-03T15:52:35;98035.66;;;15.03;75.65
13241;BME280;6687;47.790;7.322;2022-11-03T15:55:03;98026.06;;;15.03;75.31
13241;BME280;6687;47.790;7.322;2022-11-03T15:57:30;98021.78;;;15.02;75.86
13241;BME280;6687;47.790;7.322;2022-11-03T15:59:57;98024.09;;;14.83;76.80
13241;BME280;6687;47.790;7.322;2022-11-03T16:02:24;98027.59;;;14.82;76.79
13241;BME280;6687;47.790;7.322;2022-11-03T16:04:52;98018.97;;;14.80;77.32
13241;BME280;6687;47.790;7.322;2022-11-03T16:07:19;98016.31;;;14.82;76.81
13241;BME280;6687;47.790;7.322;2022-11-03T16:09:45;98008.25;;;14.61;77.75
13241;BME280;6687;47.790;7.322;2022-11-03T16:12:12;98009.81;;;14.67;77.90
13241;BME280;6687;47.790;7.322;2022-11-03T16:14:39;97999.47;;;14.64;78.35
13241;BME280;6687;47.790;7.322;2022-11-03T16:17:06;98000.97;;;14.41;79.60
13241;BME280;6687;47.790;7.322;2022-11-03T16:19:33;97997.75;;;14.33;80.94
13241;BME280;6687;47.790;7.322;2022-11-03T16:22:01;97992.25;;;14.42;79.65
13241;BME280;6687;47.790;7.322;2022-11-03T16:24:27;97999.19;;;14.43;80.30
13241;BME280;6687;47.790;7.322;2022-11-03T16:26:54;98000.91;;;14.44;79.71
13241;BME280;6687;47.790;7.322;2022-11-03T16:29:21;98005.38;;;14.39;79.66
13241;BME280;6687;47.790;7.322;2022-11-03T16:31:47;98017.00;;;14.27;80.25
13241;BME280;6687;47.790;7.322;2022-11-03T16:34:14;98020.56;;;14.25;80.78
13241;BME280;6687;47.790;7.322;2022-11-03T16:36:41;98010.22;;;14.22;81.00
13241;BME280;6687;47.790;7.322;2022-11-03T16:39:09;98020.06;;;14.10;80.60
13241;BME280;6687;47.790;7.322;2022-11-03T16:41:37;98020.75;;;14.19;81.14
13241;BME280;6687;47.790;7.322;2022-11-03T16:44:04;98033.09;;;14.10;81.16
13241;BME280;6687;47.790;7.322;2022-11-03T16:46:30;98039.28;;;14.06;81.58
13241;BME280;6687;47.790;7.322;2022-11-03T16:48:57;98033.84;;;14.16;81.25
13241;BME280;6687;47.790;7.322;2022-11-03T16:51:24;98041.66;;;14.16;81.41
13241;BME280;6687;47.790;7.322;2022-11-03T16:53:51;98038.31;;;14.10;81.40
13241;BME280;6687;47.790;7.322;2022-11-03T16:56:20;98046.13;;;14.10;81.60
13241;BME280;6687;47.790;7.322;2022-11-03T16:58:47;98052.41;;;14.03;82.09
13241;BME280;6687;47.790;7.322;2022-11-03T17:01:13;98052.31;;;14.06;81.89
13241;BME280;6687;47.790;7.322;2022-11-03T17:03:40;98048.34;;;13.93;82.56
13241;BME280;6687;47.790;7.322;2022-11-03T17:06:07;98061.47;;;13.88;83.52
13241;BME280;6687;47.790;7.322;2022-11-03T17:08:34;98061.25;;;13.96;82.74
13241;BME280;6687;47.790;7.322;2022-11-03T17:11:01;98060.47;;;13.92;82.55
13241;BME280;6687;47.790;7.322;2022-11-03T17:13:29;98046.59;;;13.93;82.27
13241;BME280;6687;47.790;7.322;2022-11-03T17:15:55;98038.75;;;13.95;82.70
13241;BME280;6687;47.790;7.322;2022-11-03T17:18:22;98030.91;;;13.97;82.38
13241;BME280;6687;47.790;7.322;2022-11-03T17:20:49;98018.63;;;14.00;82.09
13241;BME280;6687;47.790;7.322;2022-11-03T17:23:15;98006.53;;;13.98;82.29
13241;BME280;6687;47.790;7.322;2022-11-03T17:25:43;97986.66;;;13.95;82.46
13241;BME280;6687;47.790;7.322;2022-11-03T17:28:10;97995.44;;;13.91;82.57
13241;BME280;6687;47.790;7.322;2022-11-03T17:30:40;97986.91;;;13.86;82.94
13241;BME280;6687;47.790;7.322;2022-11-03T17:33:08;97985.25;;;13.83;83.11
13241;BME280;6687;47.790;7.322;2022-11-03T17:35:41;97990.31;;;13.88;83.15
13241;BME280;6687;47.790;7.322;2022-11-03T17:38:12;97985.19;;;13.85;82.93
13241;BME280;6687;47.790;7.322;2022-11-03T17:40:40;97987.06;;;13.80;83.18
13241;BME280;6687;47.790;7.322;2022-11-03T17:43:14;97986.19;;;13.81;83.11
13241;BME280;6687;47.790;7.322;2022-11-03T17:45:44;97971.38;;;13.83;83.19
13241;BME280;6687;47.790;7.322;2022-11-03T17:48:11;97959.19;;;13.83;82.97
13241;BME280;6687;47.790;7.322;2022-11-03T17:50:39;97944.38;;;13.85;83.17
13241;BME280;6687;47.790;7.322;2022-11-03T17:53:17;97957.63;;;13.78;83.79
13241;BME280;6687;47.790;7.322;2022-11-03T17:55:44;97946.38;;;13.76;83.61
13241;BME280;6687;47.790;7.322;2022-11-03T17:58:11;97972.59;;;13.69;83.83
13241;BME280;6687;47.790;7.322;2022-11-03T18:00:38;97945.28;;;13.53;87.07
13241;BME280;6687;47.790;7.322;2022-11-03T18:03:09;97941.41;;;13.66;84.86
13241;BME280;6687;47.790;7.322;2022-11-03T18:05:37;97970.16;;;13.63;84.12
13241;BME280;6687;47.790;7.322;2022-11-03T18:08:05;97957.31;;;13.57;84.88
13241;BME280;6687;47.790;7.322;2022-11-03T18:10:37;97947.72;;;13.59;85.12
13241;BME280;6687;47.790;7.322;2022-11-03T18:13:11;97954.69;;;13.57;84.35
13241;BME280;6687;47.790;7.322;2022-11-03T18:15:42;97936.47;;;13.57;84.80
13241;BME280;6687;47.790;7.322;2022-11-03T18:18:16;97932.16;;;13.56;84.94
13241;BME280;6687;47.790;7.322;2022-11-03T18:20:47;97935.56;;;13.58;84.91
13241;BME280;6687;47.790;7.322;2022-11-03T18:23:17;97943.50;;;13.53;85.00
13241;BME280;6687;47.790;7.322;2022-11-03T18:25:44;97954.34;;;13.37;87.08
13241;BME280;6687;47.790;7.322;2022-11-03T18:28:11;97957.84;;;13.00;94.09
13241;BME280;6687;47.790;7.322;2022-11-03T18:30:39;97943.41;;;12.88;97.86
13241;BME280;6687;47.790;7.322;2022-11-03T18:33:15;97925.94;;;13.27;94.19
13241;BME280;6687;47.790;7.322;2022-11-03T18:35:43;97916.13;;;13.39;89.32
13241;BME280;6687;47.790;7.322;2022-11-03T18:38:11;97907.34;;;13.43;87.72
13241;BME280;6687;47.790;7.322;2022-11-03T18:40:39;97908.09;;;13.48;86.54
13241;BME280;6687;47.790;7.322;2022-11-03T18:43:13;97897.34;;;13.27;88.83
13241;BME280;6687;47.790;7.322;2022-11-03T18:45:41;97919.00;;;13.29;89.58
13241;BME280;6687;47.790;7.322;2022-11-03T18:48:07;97905.22;;;13.24;92.04
13241;BME280;6687;47.790;7.322;2022-11-03T18:50:40;97908.63;;;12.92;96.47
13241;BME280;6687;47.790;7.322;2022-11-03T18:53:10;97903.44;;;12.54;100.00
13241;BME280;6687;47.790;7.322;2022-11-03T18:55:38;97888.66;;;12.58;100.00
13241;BME280;6687;47.790;7.322;2022-11-03T18:58:12;97882.34;;;13.03;100.00
13241;BME280;6687;47.790;7.322;2022-11-03T19:00:40;97870.69;;;13.19;96.07
13241;BME280;6687;47.790;7.322;2022-11-03T19:03:11;97868.88;;;13.21;95.21
13241;BME280;6687;47.790;7.322;2022-11-03T19:05:40;97890.06;;;12.71;100.00
13241;BME280;6687;47.790;7.322;2022-11-03T19:08:09;97876.13;;;13.08;100.00
13241;BME280;6687;47.790;7.322;2022-11-03T19:10:39;97894.53;;;12.65;100.00
13241;BME280;6687;47.790;7.322;2022-11-03T19:13:08;97876.81;;;12.82;100.00
13241;BME280;6687;47.790;7.322;2022-11-03T19:15:39;97878.75;;;13.08;100.00
13241;BME280;6687;47.790;7.322;2022-11-03T19:18:08;97890.28;;;12.98;99.49
13241;BME280;6687;47.790;7.322;2022-11-03T19:20:37;97899.03;;;12.58;100.00
13241;BME280;6687;47.790;7.322;2022-11-03T19:23:07;97884.66;;;12.79;100.00
13241;BME280;6687;47.790;7.322;2022-11-03T19:25:34;97885.09;;;12.97;100.00
13241;BME280;6687;47.790;7.322;2022-11-03T19:28:02;97882.63;;;12.92;100.00
13241;BME280;6687;47.790;7.322;2022-11-03T19:30:29;97890.09;;;13.06;97.37
13241;BME280;6687;47.790;7.322;2022-11-03T19:32:56;97899.38;;;13.14;94.63
13241;BME280;6687;47.790;7.322;2022-11-03T19:35:27;97895.78;;;13.20;92.40
13241;BME280;6687;47.790;7.322;2022-11-03T19:37:58;97900.25;;;13.15;92.31
13241;BME280;6687;47.790;7.322;2022-11-03T19:40:28;97908.88;;;13.17;91.23
13241;BME280;6687;47.790;7.322;2022-11-03T19:42:56;97920.91;;;13.21;91.06
13241;BME280;6687;47.790;7.322;2022-11-03T19:45:22;97927.00;;;13.20;91.34
13241;BME280;6687;47.790;7.322;2022-11-03T19:47:53;97934.78;;;13.20;91.37